sensor_id;sensor_type;location;lat;lon;timestamp;temperature;humidity
7894;DHT22;51343;51.396;6.656;2023-03-14T00:00:32;11.30;87.60
7894;DHT22;51343;51.396;6.656;2023-03-14T00:02:58;11.40;1.00
7894;DHT22;51343;51.396;6.656;2023-03-14T00:05:25;11.40;1.00
7894;DHT22;51343;51.396;6.656;2023-03-14T00:07:52;11.40;1.00
7894;DHT22;51343;51.396;6.656;2023-03-14T00:10:20;11.40;1.00
7894;DHT22;51343;51.396;6.656;2023-03-14T00:12:47;11.40;1.00
7894;DHT22;51343;51.396;6.656;2023-03-14T00:15:13;11.40;1.00
7894;DHT22;51343;51.396;6.656;2023-03-14T00:17:40;11.50;1.00
7894;DHT22;51343;51.396;6.656;2023-03-14T00:20:09;11.50;1.00
7894;DHT22;51343;51.396;6.656;2023-03-14T00:22:36;11.50;1.00
7894;DHT22;51343;51.396;6.656;2023-03-14T00:25:03;11.60;1.00
7894;DHT22;51343;51.396;6.656;2023-03-14T00:27:32;11.70;1.00
7894;DHT22;51343;51.396;6.656;2023-03-14T00:29:59;11.70;11.90
7894;DHT22;51343;51.396;6.656;2023-03-14T00:32:25;11.40;1.00
7894;DHT22;51343;51.396;6.656;2023-03-14T00:34:52;11.10;99.90
7894;DHT22;51343;51.396;6.656;2023-03-14T00:37:19;10.90;1.00
7894;DHT22;51343;51.396;6.656;2023-03-14T00:39:45;10.70;1.00
7894;DHT22;51343;51.396;6.656;2023-03-14T00:42:13;10.50;1.00
7894;DHT22;51343;51.396;6.656;2023-03-14T00:44:41;10.40;1.00
7894;DHT22;51343;51.396;6.656;2023-03-14T00:47:07;10.30;1.00
7894;DHT22;51343;51.396;6.656;2023-03-14T00:49:34;10.20;99.90
7894;DHT22;51343;51.396;6.656;2023-03-14T00:52:01;10.10;1.00
7894;DHT22;51343;51.396;6.656;2023-03-14T00:54:27;10.00;1.00
7894;DHT22;51343;51.396;6.656;2023-03-14T00:56:54;10.00;1.00
7894;DHT22;51343;51.396;6.656;2023-03-14T00:59:21;9.90;1.00
7894;DHT22;51343;51.396;6.656;2023-03-14T01:01:49;9.90;1.00
7894;DHT22;51343;51.396;6.656;2023-03-14T01:04:16;9.90;1.00
7894;DHT22;51343;51.396;6.656;2023-03-14T01:06:42;9.80;99.90
7894;DHT22;51343;51.396;6.656;2023-03-14T01:09:09;9.90;99.90
7894;DHT22;51343;51.396;6.656;2023-03-14T01:11:36;9.90;18.90
7894;DHT22;51343;51.396;6.656;2023-03-14T01:14:02;9.90;1.00
7894;DHT22;51343;51.396;6.656;2023-03-14T01:16:30;9.90;1.00
7894;DHT22;51343;51.396;6.656;2023-03-14T01:18:58;10.00;98.80
7894;DHT22;51343;51.396;6.656;2023-03-14T01:21:26;10.00;1.00
7894;DHT22;51343;51.396;6.656;2023-03-14T01:23:53;9.90;99.90
7894;DHT22;51343;51.396;6.656;2023-03-14T01:26:21;9.90;1.00
7894;DHT22;51343;51.396;6.656;2023-03-14T01:28:49;9.80;1.00
7894;DHT22;51343;51.396;6.656;2023-03-14T01:31:16;9.80;1.00
7894;DHT22;51343;51.396;6.656;2023-03-14T01:33:42;9.70;19.60
7894;DHT22;51343;51.396;6.656;2023-03-14T01:36:11;9.60;99.90
7894;DHT22;51343;51.396;6.656;2023-03-14T01:38:38;9.60;1.00
7894;DHT22;51343;51.396;6.656;2023-03-14T01:41:06;9.50;1.00
7894;DHT22;51343;51.396;6.656;2023-03-14T01:43:33;9.50;1.00
7894;DHT22;51343;51.396;6.656;2023-03-14T01:46:12;9.50;1.00
7894;DHT22;51343;51.396;6.656;2023-03-14T01:48:42;9.50;99.90
7894;DHT22;51343;51.396;6.656;2023-03-14T01:51:13;9.50;99.90
7894;DHT22;51343;51.396;6.656;2023-03-14T01:53:40;9.50;1.00
7894;DHT22;51343;51.396;6.656;2023-03-14T01:56:09;9.50;99.90
7894;DHT22;51343;51.396;6.656;2023-03-14T01:58:37;9.60;1.00
7894;DHT22;51343;51.396;6.656;2023-03-14T02:01:05;9.60;1.00
7894;DHT22;51343;51.396;6.656;2023-03-14T02:03:34;9.70;1.00
7894;DHT22;51343;51.396;6.656;2023-03-14T02:06:04;9.70;1.00
7894;DHT22;51343;51.396;6.656;2023-03-14T02:08:35;9.80;3.20
7894;DHT22;51343;51.396;6.656;2023-03-14T02:11:04;9.80;1.00
7894;DHT22;51343;51.396;6.656;2023-03-14T02:13:32;9.80;1.00
7894;DHT22;51343;51.396;6.656;2023-03-14T02:15:59;9.80;1.00
7894;DHT22;51343;51.396;6.656;2023-03-14T02:18:26;9.80;1.00
7894;DHT22;51343;51.396;6.656;2023-03-14T02:20:53;9.80;99.90
7894;DHT22;51343;51.396;6.656;2023-03-14T02:23:25;9.80;1.00
7894;DHT22;51343;51.396;6.656;2023-03-14T02:25:56;9.80;99.90
7894;DHT22;51343;51.396;6.656;2023-03-14T02:28:25;9.80;1.00
7894;DHT22;51343;51.396;6.656;2023-03-14T02:30:52;9.90;1.00
7894;DHT22;51343;51.396;6.656;2023-03-14T02:33:19;9.90;1.00
7894;DHT22;51343;51.396;6.656;2023-03-14T02:35:47;9.90;1.00
7894;DHT22;51343;51.396;6.656;2023-03-14T02:38:15;9.90;99.90
7894;DHT22;51343;51.396;6.656;2023-03-14T02:40:44;9.90;1.00
7894;DHT22;51343;51.396;6.656;2023-03-14T02:43:11;9.90;21.50
7894;DHT22;51343;51.396;6.656;2023-03-14T02:45:40;9.90;99.90
7894;DHT22;51343;51.396;6.656;2023-03-14T02:48:09;9.80;99.90
7894;DHT22;51343;51.396;6.656;2023-03-14T02:50:37;9.90;99.90
7894;DHT22;51343;51.396;6.656;2023-03-14T02:53:04;9.90;99.90
7894;DHT22;51343;51.396;6.656;2023-03-14T02:55:31;10.00;99.90
7894;DHT22;51343;51.396;6.656;2023-03-14T02:57:58;9.90;99.90
7894;DHT22;51343;51.396;6.656;2023-03-14T03:00:25;9.90;99.90
7894;DHT22;51343;51.396;6.656;2023-03-14T03:02:53;9.90;1.00
7894;DHT22;51343;51.396;6.656;2023-03-14T03:05:20;9.90;1.00
7894;DHT22;51343;51.396;6.656;2023-03-14T03:07:46;10.00;99.90
7894;DHT22;51343;51.396;6.656;2023-03-14T03:10:13;9.90;1.00
7894;DHT22;51343;51.396;6.656;2023-03-14T03:12:40;9.90;1.00
7894;DHT22;51343;51.396;6.656;2023-03-14T03:15:07;9.90;1.00
7894;DHT22;51343;51.396;6.656;2023-03-14T03:17:34;9.90;1.00
7894;DHT22;51343;51.396;6.656;2023-03-14T03:20:03;9.90;99.90
7894;DHT22;51343;51.396;6.656;2023-03-14T03:22:34;9.90;99.90
7894;DHT22;51343;51.396;6.656;2023-03-14T03:25:01;10.00;70.50
7894;DHT22;51343;51.396;6.656;2023-03-14T03:27:29;10.00;99.90
7894;DHT22;51343;51.396;6.656;2023-03-14T03:29:55;10.00;1.00
7894;DHT22;51343;51.396;6.656;2023-03-14T03:32:22;10.00;1.00
7894;DHT22;51343;51.396;6.656;2023-03-14T03:34:48;10.00;99.90
7894;DHT22;51343;51.396;6.656;2023-03-14T03:37:16;10.00;1.00
7894;DHT22;51343;51.396;6.656;2023-03-14T03:39:43;10.00;99.90
7894;DHT22;51343;51.396;6.656;2023-03-14T03:42:09;9.90;1.00
7894;DHT22;51343;51.396;6.656;2023-03-14T03:44:36;9.80;1.00
7894;DHT22;51343;51.396;6.656;2023-03-14T03:47:03;9.70;1.00
7894;DHT22;51343;51.396;6.656;2023-03-14T03:49:30;9.60;51.90
7894;DHT22;51343;51.396;6.656;2023-03-14T03:51:57;9.50;33.40
7894;DHT22;51343;51.396;6.656;2023-03-14T03:54:25;9.50;99.90
7894;DHT22;51343;51.396;6.656;2023-03-14T03:56:51;9.50;99.90
7894;DHT22;51343;51.396;6.656;2023-03-14T03:59:18;9.50;99.90
7894;DHT22;51343;51.396;6.656;2023-03-14T04:01:45;9.50;99.90
7894;DHT22;51343;51.396;6.656;2023-03-14T04:04:11;9.50;99.90
7894;DHT22;51343;51.396;6.656;2023-03-14T04:06:38;9.50;99.90
7894;DHT22;51343;51.396;6.656;2023-03-14T04:09:05;9.60;99.90
7894;DHT22;51343;51.396;6.656;2023-03-14T04:11:33;9.50;99.90
7894;DHT22;51343;51.396;6.656;2023-03-14T04:14:00;9.40;37.80
7894;DHT22;51343;51.396;6.656;2023-03-14T04:16:27;9.30;99.90
7894;DHT22;51343;51.396;6.656;2023-03-14T04:18:53;9.20;1.00
7894;DHT22;51343;51.396;6.656;2023-03-14T04:21:20;9.10;1.00
7894;DHT22;51343;51.396;6.656;2023-03-14T04:23:47;9.00;1.00
7894;DHT22;51343;51.396;6.656;2023-03-14T04:26:14;9.00;1.00
7894;DHT22;51343;51.396;6.656;2023-03-14T04:28:42;8.90;33.70
7894;DHT22;51343;51.396;6.656;2023-03-14T04:31:09;8.90;99.90
7894;DHT22;51343;51.396;6.656;2023-03-14T04:33:36;8.80;99.90
7894;DHT22;51343;51.396;6.656;2023-03-14T04:36:03;8.80;99.90
7894;DHT22;51343;51.396;6.656;2023-03-14T04:38:30;8.80;99.90
7894;DHT22;51343;51.396;6.656;2023-03-14T04:40:56;8.70;99.90
7894;DHT22;51343;51.396;6.656;2023-03-14T04:43:23;8.70;99.90
7894;DHT22;51343;51.396;6.656;2023-03-14T04:45:52;8.70;99.90
7894;DHT22;51343;51.396;6.656;2023-03-14T04:48:19;8.60;99.90
7894;DHT22;51343;51.396;6.656;2023-03-14T04:50:46;8.60;99.90
7894;DHT22;51343;51.396;6.656;2023-03-14T04:53:12;8.60;99.90
7894;DHT22;51343;51.396;6.656;2023-03-14T04:55:39;8.60;99.90
7894;DHT22;51343;51.396;6.656;2023-03-14T04:58:06;8.60;99.90
7894;DHT22;51343;51.396;6.656;2023-03-14T05:00:32;8.60;99.90
7894;DHT22;51343;51.396;6.656;2023-03-14T05:03:00;8.50;99.90
7894;DHT22;51343;51.396;6.656;2023-03-14T05:05:27;8.50;99.90
7894;DHT22;51343;51.396;6.656;2023-03-14T05:07:53;8.50;99.90
7894;DHT22;51343;51.396;6.656;2023-03-14T05:10:20;8.50;99.90
7894;DHT22;51343;51.396;6.656;2023-03-14T05:12:47;8.50;99.90
7894;DHT22;51343;51.396;6.656;2023-03-14T05:15:13;8.50;99.90
7894;DHT22;51343;51.396;6.656;2023-03-14T05:17:40;8.50;99.90
7894;DHT22;51343;51.396;6.656;2023-03-14T05:20:09;8.50;99.90
7894;DHT22;51343;51.396;6.656;2023-03-14T05:22:38;8.40;99.90
7894;DHT22;51343;51.396;6.656;2023-03-14T05:25:04;8.40;99.90
7894;DHT22;51343;51.396;6.656;2023-03-14T05:27:31;8.40;99.90
7894;DHT22;51343;51.396;6.656;2023-03-14T05:29:58;8.40;99.90
7894;DHT22;51343;51.396;6.656;2023-03-14T05:32:24;8.40;99.90
7894;DHT22;51343;51.396;6.656;2023-03-14T05:34:51;8.40;99.90
7894;DHT22;51343;51.396;6.656;2023-03-14T05:37:19;8.40;99.90
7894;DHT22;51343;51.396;6.656;2023-03-14T05:39:46;8.40;99.90
7894;DHT22;51343;51.396;6.656;2023-03-14T05:42:12;8.50;99.90
7894;DHT22;51343;51.396;6.656;2023-03-14T05:44:39;8.50;99.90
7894;DHT22;51343;51.396;6.656;2023-03-14T05:47:06;8.50;99.90
7894;DHT22;51343;51.396;6.656;2023-03-14T05:49:32;8.50;99.90
7894;DHT22;51343;51.396;6.656;2023-03-14T05:51:59;8.60;99.90
7894;DHT22;51343;51.396;6.656;2023-03-14T05:54:27;8.60;99.90
7894;DHT22;51343;51.396;6.656;2023-03-14T05:56:53;8.60;99.90
7894;DHT22;51343;51.396;6.656;2023-03-14T05:59:20;8.60;99.90
7894;DHT22;51343;51.396;6.656;2023-03-14T06:01:47;8.60;99.90
7894;DHT22;51343;51.396;6.656;2023-03-14T06:04:13;8.60;99.90
7894;DHT22;51343;51.396;6.656;2023-03-14T06:06:40;8.60;99.90
7894;DHT22;51343;51.396;6.656;2023-03-14T06:09:07;8.70;99.90
7894;DHT22;51343;51.396;6.656;2023-03-14T06:11:35;8.70;99.90
7894;DHT22;51343;51.396;6.656;2023-03-14T06:14:01;8.80;99.90
7894;DHT22;51343;51.396;6.656;2023-03-14T06:16:28;8.80;99.90
7894;DHT22;51343;51.396;6.656;2023-03-14T06:18:55;8.80;99.90
7894;DHT22;51343;51.396;6.656;2023-03-14T06:21:21;8.90;99.90
7894;DHT22;51343;51.396;6.656;2023-03-14T06:23:48;8.90;99.90
7894;DHT22;51343;51.396;6.656;2023-03-14T06:26:15;9.00;99.90
7894;DHT22;51343;51.396;6.656;2023-03-14T06:28:43;9.00;99.90
7894;DHT22;51343;51.396;6.656;2023-03-14T06:31:09;9.00;99.90
7894;DHT22;51343;51.396;6.656;2023-03-14T06:33:36;9.10;99.90
7894;DHT22;51343;51.396;6.656;2023-03-14T06:36:02;9.10;99.90
7894;DHT22;51343;51.396;6.656;2023-03-14T06:38:29;9.10;99.90
7894;DHT22;51343;51.396;6.656;2023-03-14T06:40:56;9.10;99.90
7894;DHT22;51343;51.396;6.656;2023-03-14T06:43:22;9.10;99.90
7894;DHT22;51343;51.396;6.656;2023-03-14T06:45:50;9.10;99.90
7894;DHT22;51343;51.396;6.656;2023-03-14T06:48:17;9.10;99.90
7894;DHT22;51343;51.396;6.656;2023-03-14T06:50:44;9.10;99.90
7894;DHT22;51343;51.396;6.656;2023-03-14T06:53:10;9.10;99.90
7894;DHT22;51343;51.396;6.656;2023-03-14T06:55:37;9.10;99.90
7894;DHT22;51343;51.396;6.656;2023-03-14T06:58:04;9.10;99.90
7894;DHT22;51343;51.396;6.656;2023-03-14T07:00:32;9.20;99.90
7894;DHT22;51343;51.396;6.656;2023-03-14T07:03:00;9.20;99.90
7894;DHT22;51343;51.396;6.656;2023-03-14T07:05:27;9.20;99.90
7894;DHT22;51343;51.396;6.656;2023-03-14T07:07:53;9.20;99.90
7894;DHT22;51343;51.396;6.656;2023-03-14T07:10:20;9.20;99.90
7894;DHT22;51343;51.396;6.656;2023-03-14T07:12:47;9.20;99.90
7894;DHT22;51343;51.396;6.656;2023-03-14T07:15:14;9.30;99.90
7894;DHT22;51343;51.396;6.656;2023-03-14T07:17:41;9.30;99.90
7894;DHT22;51343;51.396;6.656;2023-03-14T07:20:09;9.40;99.90
7894;DHT22;51343;51.396;6.656;2023-03-14T07:22:36;9.40;99.90
7894;DHT22;51343;51.396;6.656;2023-03-14T07:25:04;9.40;99.90
7894;DHT22;51343;51.396;6.656;2023-03-14T07:27:31;9.40;99.90
7894;DHT22;51343;51.396;6.656;2023-03-14T07:29:58;9.40;99.90
7894;DHT22;51343;51.396;6.656;2023-03-14T07:32:24;9.50;99.90
7894;DHT22;51343;51.396;6.656;2023-03-14T07:34:51;9.50;99.90
7894;DHT22;51343;51.396;6.656;2023-03-14T07:37:19;9.50;99.90
7894;DHT22;51343;51.396;6.656;2023-03-14T07:39:45;9.50;99.90
7894;DHT22;51343;51.396;6.656;2023-03-14T07:42:12;9.50;99.90
7894;DHT22;51343;51.396;6.656;2023-03-14T07:44:39;9.50;99.90
7894;DHT22;51343;51.396;6.656;2023-03-14T07:47:05;9.50;99.90
7894;DHT22;51343;51.396;6.656;2023-03-14T07:49:32;9.50;99.90
7894;DHT22;51343;51.396;6.656;2023-03-14T07:51:58;9.50;99.90
7894;DHT22;51343;51.396;6.656;2023-03-14T07:54:26;9.60;99.90
7894;DHT22;51343;51.396;6.656;2023-03-14T07:56:53;9.60;99.90
7894;DHT22;51343;51.396;6.656;2023-03-14T07:59:20;9.50;99.90
7894;DHT22;51343;51.396;6.656;2023-03-14T08:01:47;9.50;99.90
7894;DHT22;51343;51.396;6.656;2023-03-14T08:04:13;9.60;99.90
7894;DHT22;51343;51.396;6.656;2023-03-14T08:06:40;9.60;99.90
7894;DHT22;51343;51.396;6.656;2023-03-14T08:09:06;9.60;99.90
7894;DHT22;51343;51.396;6.656;2023-03-14T08:11:37;9.70;99.90
7894;DHT22;51343;51.396;6.656;2023-03-14T08:14:03;9.70;99.90
7894;DHT22;51343;51.396;6.656;2023-03-14T08:16:30;9.80;99.90
7894;DHT22;51343;51.396;6.656;2023-03-14T08:18:56;9.80;99.90
7894;DHT22;51343;51.396;6.656;2023-03-14T08:21:23;9.90;99.90
7894;DHT22;51343;51.396;6.656;2023-03-14T08:23:50;10.00;99.90
7894;DHT22;51343;51.396;6.656;2023-03-14T08:26:16;10.00;99.90
7894;DHT22;51343;51.396;6.656;2023-03-14T08:28:44;10.00;99.90
7894;DHT22;51343;51.396;6.656;2023-03-14T08:31:11;9.90;99.90
7894;DHT22;51343;51.396;6.656;2023-03-14T08:33:37;9.90;99.90
7894;DHT22;51343;51.396;6.656;2023-03-14T08:36:04;9.90;99.90
7894;DHT22;51343;51.396;6.656;2023-03-14T08:38:31;9.80;99.90
7894;DHT22;51343;51.396;6.656;2023-03-14T08:40:58;9.80;99.90
7894;DHT22;51343;51.396;6.656;2023-03-14T08:43:24;9.80;99.90
7894;DHT22;51343;51.396;6.656;2023-03-14T08:45:52;9.80;99.90
7894;DHT22;51343;51.396;6.656;2023-03-14T08:48:19;9.70;99.90
7894;DHT22;51343;51.396;6.656;2023-03-14T08:50:46;9.70;99.90
7894;DHT22;51343;51.396;6.656;2023-03-14T08:53:12;9.70;99.90
7894;DHT22;51343;51.396;6.656;2023-03-14T08:55:39;9.60;99.90
7894;DHT22;51343;51.396;6.656;2023-03-14T08:58:06;9.60;99.90
7894;DHT22;51343;51.396;6.656;2023-03-14T09:00:32;9.60;99.90
7894;DHT22;51343;51.396;6.656;2023-03-14T09:03:00;9.60;99.90
7894;DHT22;51343;51.396;6.656;2023-03-14T09:05:27;9.60;99.90
7894;DHT22;51343;51.396;6.656;2023-03-14T09:07:53;9.50;99.90
7894;DHT22;51343;51.396;6.656;2023-03-14T09:10:20;9.10;99.90
7894;DHT22;51343;51.396;6.656;2023-03-14T09:12:46;8.80;99.90
7894;DHT22;51343;51.396;6.656;2023-03-14T09:15:13;8.60;99.90
7894;DHT22;51343;51.396;6.656;2023-03-14T09:17:41;8.50;99.90
7894;DHT22;51343;51.396;6.656;2023-03-14T09:20:10;8.20;99.90
7894;DHT22;51343;51.396;6.656;2023-03-14T09:22:37;8.10;99.90
7894;DHT22;51343;51.396;6.656;2023-03-14T09:25:03;7.90;99.90
7894;DHT22;51343;51.396;6.656;2023-03-14T09:27:30;7.80;99.90
7894;DHT22;51343;51.396;6.656;2023-03-14T09:29:57;7.80;99.90
7894;DHT22;51343;51.396;6.656;2023-03-14T09:32:24;7.80;99.90
7894;DHT22;51343;51.396;6.656;2023-03-14T09:34:50;7.80;99.90
7894;DHT22;51343;51.396;6.656;2023-03-14T09:37:18;7.90;99.90
7894;DHT22;51343;51.396;6.656;2023-03-14T09:39:46;7.90;99.90
7894;DHT22;51343;51.396;6.656;2023-03-14T09:42:13;7.90;99.90
7894;DHT22;51343;51.396;6.656;2023-03-14T09:44:42;8.00;99.90
7894;DHT22;51343;51.396;6.656;2023-03-14T09:47:12;8.00;99.90
7894;DHT22;51343;51.396;6.656;2023-03-14T09:49:39;8.00;99.90
7894;DHT22;51343;51.396;6.656;2023-03-14T09:52:07;8.00;99.90
7894;DHT22;51343;51.396;6.656;2023-03-14T09:54:38;7.90;99.90
7894;DHT22;51343;51.396;6.656;2023-03-14T09:57:09;7.90;99.90
7894;DHT22;51343;51.396;6.656;2023-03-14T09:59:37;7.90;99.90
7894;DHT22;51343;51.396;6.656;2023-03-14T10:02:11;8.00;99.90
7894;DHT22;51343;51.396;6.656;2023-03-14T10:04:39;8.00;99.90
7894;DHT22;51343;51.396;6.656;2023-03-14T10:07:09;8.00;99.90
7894;DHT22;51343;51.396;6.656;2023-03-14T10:09:42;8.00;99.90
7894;DHT22;51343;51.396;6.656;2023-03-14T10:12:09;8.00;99.90
7894;DHT22;51343;51.396;6.656;2023-03-14T10:14:37;8.10;99.90
7894;DHT22;51343;51.396;6.656;2023-03-14T10:17:05;8.00;99.90
7894;DHT22;51343;51.396;6.656;2023-03-14T10:19:33;7.90;99.90
7894;DHT22;51343;51.396;6.656;2023-03-14T10:22:01;7.60;99.90
7894;DHT22;51343;51.396;6.656;2023-03-14T10:24:29;7.50;99.90
7894;DHT22;51343;51.396;6.656;2023-03-14T10:26:59;7.40;99.90
7894;DHT22;51343;51.396;6.656;2023-03-14T10:29:27;7.30;99.90
7894;DHT22;51343;51.396;6.656;2023-03-14T10:31:55;7.30;99.90
7894;DHT22;51343;51.396;6.656;2023-03-14T10:34:24;7.30;99.90
7894;DHT22;51343;51.396;6.656;2023-03-14T10:36:52;7.20;99.90
7894;DHT22;51343;51.396;6.656;2023-03-14T10:39:24;7.10;99.90
7894;DHT22;51343;51.396;6.656;2023-03-14T10:41:53;7.00;99.90
7894;DHT22;51343;51.396;6.656;2023-03-14T10:44:21;7.10;99.90
7894;DHT22;51343;51.396;6.656;2023-03-14T10:46:55;7.10;99.90
7894;DHT22;51343;51.396;6.656;2023-03-14T10:49:23;7.00;99.90
7894;DHT22;51343;51.396;6.656;2023-03-14T10:51:51;7.00;99.90
7894;DHT22;51343;51.396;6.656;2023-03-14T10:54:19;7.00;99.90
7894;DHT22;51343;51.396;6.656;2023-03-14T10:56:50;6.80;99.90
7894;DHT22;51343;51.396;6.656;2023-03-14T10:59:23;6.70;99.90
7894;DHT22;51343;51.396;6.656;2023-03-14T11:01:51;6.70;99.90
7894;DHT22;51343;51.396;6.656;2023-03-14T11:07:08;6.60;99.90
7894;DHT22;51343;51.396;6.656;2023-03-14T11:09:38;6.60;99.90
7894;DHT22;51343;51.396;6.656;2023-03-14T11:12:14;6.70;99.90
7894;DHT22;51343;51.396;6.656;2023-03-14T11:14:48;6.80;99.90
7894;DHT22;51343;51.396;6.656;2023-03-14T11:17:19;6.90;99.90
7894;DHT22;51343;51.396;6.656;2023-03-14T11:19:57;7.00;99.90
7894;DHT22;51343;51.396;6.656;2023-03-14T11:22:31;7.10;99.90
7894;DHT22;51343;51.396;6.656;2023-03-14T11:25:06;7.10;99.90
7894;DHT22;51343;51.396;6.656;2023-03-14T11:27:36;7.10;44.70
7894;DHT22;51343;51.396;6.656;2023-03-14T11:30:13;7.00;1.00
7894;DHT22;51343;51.396;6.656;2023-03-14T11:32:43;7.10;99.90
7894;DHT22;51343;51.396;6.656;2023-03-14T11:35:14;6.90;99.90
7894;DHT22;51343;51.396;6.656;2023-03-14T11:37:43;6.80;1.00
7894;DHT22;51343;51.396;6.656;2023-03-14T11:40:13;6.70;1.00
7894;DHT22;51343;51.396;6.656;2023-03-14T11:42:42;6.70;1.00
7894;DHT22;51343;51.396;6.656;2023-03-14T11:45:14;6.70;1.00
7894;DHT22;51343;51.396;6.656;2023-03-14T11:47:43;6.60;1.00
7894;DHT22;51343;51.396;6.656;2023-03-14T11:50:12;6.50;1.00
7894;DHT22;51343;51.396;6.656;2023-03-14T11:52:41;6.60;1.00
7894;DHT22;51343;51.396;6.656;2023-03-14T11:55:11;6.70;1.00
7894;DHT22;51343;51.396;6.656;2023-03-14T11:57:38;7.10;1.00
7894;DHT22;51343;51.396;6.656;2023-03-14T12:00:12;8.10;99.90
7894;DHT22;51343;51.396;6.656;2023-03-14T12:02:43;8.60;1.00
7894;DHT22;51343;51.396;6.656;2023-03-14T12:05:31;8.80;1.00
7894;DHT22;51343;51.396;6.656;2023-03-14T12:08:14;8.60;99.90
7894;DHT22;51343;51.396;6.656;2023-03-14T12:10:46;8.70;1.00
7894;DHT22;51343;51.396;6.656;2023-03-14T12:13:15;8.80;1.00
7894;DHT22;51343;51.396;6.656;2023-03-14T12:15:47;9.00;99.90
7894;DHT22;51343;51.396;6.656;2023-03-14T12:18:19;9.10;99.90
7894;DHT22;51343;51.396;6.656;2023-03-14T12:20:50;8.90;99.90
7894;DHT22;51343;51.396;6.656;2023-03-14T12:23:17;8.60;99.90
7894;DHT22;51343;51.396;6.656;2023-03-14T12:25:45;8.40;99.90
7894;DHT22;51343;51.396;6.656;2023-03-14T12:28:19;8.20;99.90
7894;DHT22;51343;51.396;6.656;2023-03-14T12:30:46;8.00;1.00
7894;DHT22;51343;51.396;6.656;2023-03-14T12:33:21;7.90;1.00
7894;DHT22;51343;51.396;6.656;2023-03-14T12:35:52;7.20;1.00
7894;DHT22;51343;51.396;6.656;2023-03-14T12:38:24;6.90;5.00
7894;DHT22;51343;51.396;6.656;2023-03-14T12:40:56;6.80;99.90
7894;DHT22;51343;51.396;6.656;2023-03-14T12:43:24;6.80;99.90
7894;DHT22;51343;51.396;6.656;2023-03-14T12:46:09;6.80;99.90
7894;DHT22;51343;51.396;6.656;2023-03-14T12:48:42;7.00;99.90
7894;DHT22;51343;51.396;6.656;2023-03-14T12:51:12;7.40;99.90
7894;DHT22;51343;51.396;6.656;2023-03-14T12:53:52;7.60;1.00
7894;DHT22;51343;51.396;6.656;2023-03-14T12:56:26;7.60;1.00
7894;DHT22;51343;51.396;6.656;2023-03-14T13:01:37;7.80;1.00
7894;DHT22;51343;51.396;6.656;2023-03-14T13:04:14;8.10;1.00
7894;DHT22;51343;51.396;6.656;2023-03-14T13:06:48;8.30;1.00
7894;DHT22;51343;51.396;6.656;2023-03-14T13:12:07;8.10;1.00
7894;DHT22;51343;51.396;6.656;2023-03-14T13:14:35;8.00;1.00
7894;DHT22;51343;51.396;6.656;2023-03-14T13:17:03;7.70;1.00
7894;DHT22;51343;51.396;6.656;2023-03-14T13:19:31;7.10;1.00
7894;DHT22;51343;51.396;6.656;2023-03-14T13:22:01;6.70;1.00
7894;DHT22;51343;51.396;6.656;2023-03-14T13:24:29;6.40;99.90
7894;DHT22;51343;51.396;6.656;2023-03-14T13:26:59;6.40;99.90
7894;DHT22;51343;51.396;6.656;2023-03-14T13:29:26;6.50;99.90
7894;DHT22;51343;51.396;6.656;2023-03-14T13:31:53;6.70;99.90
7894;DHT22;51343;51.396;6.656;2023-03-14T13:34:21;7.10;1.00
7894;DHT22;51343;51.396;6.656;2023-03-14T13:36:52;7.30;99.90
7894;DHT22;51343;51.396;6.656;2023-03-14T13:39:20;7.50;1.00
7894;DHT22;51343;51.396;6.656;2023-03-14T13:41:49;7.60;99.90
7894;DHT22;51343;51.396;6.656;2023-03-14T13:44:17;8.00;1.00
7894;DHT22;51343;51.396;6.656;2023-03-14T13:46:44;8.50;1.00
7894;DHT22;51343;51.396;6.656;2023-03-14T13:49:11;9.00;1.00
7894;DHT22;51343;51.396;6.656;2023-03-14T13:51:39;9.50;1.00
7894;DHT22;51343;51.396;6.656;2023-03-14T13:54:14;10.10;1.00
7894;DHT22;51343;51.396;6.656;2023-03-14T13:56:41;10.70;99.90
7894;DHT22;51343;51.396;6.656;2023-03-14T13:59:20;10.20;99.90
7894;DHT22;51343;51.396;6.656;2023-03-14T14:01:47;9.90;99.90
7894;DHT22;51343;51.396;6.656;2023-03-14T14:04:14;9.60;99.90
7894;DHT22;51343;51.396;6.656;2023-03-14T14:06:44;9.60;99.90
7894;DHT22;51343;51.396;6.656;2023-03-14T14:09:13;9.40;99.90
7894;DHT22;51343;51.396;6.656;2023-03-14T14:11:41;9.40;99.90
7894;DHT22;51343;51.396;6.656;2023-03-14T14:14:10;10.30;99.90
7894;DHT22;51343;51.396;6.656;2023-03-14T14:16:38;11.00;67.90
7894;DHT22;51343;51.396;6.656;2023-03-14T14:19:06;11.80;89.00
7894;DHT22;51343;51.396;6.656;2023-03-14T14:21:32;12.30;1.00
7894;DHT22;51343;51.396;6.656;2023-03-14T14:23:59;12.10;1.00
7894;DHT22;51343;51.396;6.656;2023-03-14T14:26:27;12.10;1.00
7894;DHT22;51343;51.396;6.656;2023-03-14T14:29:01;11.50;1.00
7894;DHT22;51343;51.396;6.656;2023-03-14T14:31:28;10.60;1.00
7894;DHT22;51343;51.396;6.656;2023-03-14T14:33:56;10.50;1.00
7894;DHT22;51343;51.396;6.656;2023-03-14T14:36:23;10.30;1.00
7894;DHT22;51343;51.396;6.656;2023-03-14T14:38:54;10.10;1.00
7894;DHT22;51343;51.396;6.656;2023-03-14T14:41:20;9.90;1.00
7894;DHT22;51343;51.396;6.656;2023-03-14T14:43:49;9.40;1.00
7894;DHT22;51343;51.396;6.656;2023-03-14T14:46:18;9.10;1.00
7894;DHT22;51343;51.396;6.656;2023-03-14T14:48:46;9.10;1.00
7894;DHT22;51343;51.396;6.656;2023-03-14T14:51:23;8.90;1.00
7894;DHT22;51343;51.396;6.656;2023-03-14T14:53:59;8.90;1.00
7894;DHT22;51343;51.396;6.656;2023-03-14T14:56:26;9.00;1.00
7894;DHT22;51343;51.396;6.656;2023-03-14T14:58:57;8.90;1.00
7894;DHT22;51343;51.396;6.656;2023-03-14T15:01:24;8.80;1.00
7894;DHT22;51343;51.396;6.656;2023-03-14T15:03:52;8.80;1.00
7894;DHT22;51343;51.396;6.656;2023-03-14T15:06:19;8.80;1.00
7894;DHT22;51343;51.396;6.656;2023-03-14T15:08:46;8.90;1.00
7894;DHT22;51343;51.396;6.656;2023-03-14T15:11:15;8.60;1.00
7894;DHT22;51343;51.396;6.656;2023-03-14T15:13:43;8.70;1.00
7894;DHT22;51343;51.396;6.656;2023-03-14T15:16:12;8.70;1.00
7894;DHT22;51343;51.396;6.656;2023-03-14T15:18:39;8.70;1.00
7894;DHT22;51343;51.396;6.656;2023-03-14T15:21:08;8.60;1.00
7894;DHT22;51343;51.396;6.656;2023-03-14T15:23:35;8.50;1.00
7894;DHT22;51343;51.396;6.656;2023-03-14T15:26:02;8.40;1.00
7894;DHT22;51343;51.396;6.656;2023-03-14T15:28:28;8.30;1.00
7894;DHT22;51343;51.396;6.656;2023-03-14T15:30:56;8.30;1.00
7894;DHT22;51343;51.396;6.656;2023-03-14T15:33:24;8.30;1.00
7894;DHT22;51343;51.396;6.656;2023-03-14T15:35:51;8.30;1.00
7894;DHT22;51343;51.396;6.656;2023-03-14T15:38:18;8.20;1.00
7894;DHT22;51343;51.396;6.656;2023-03-14T15:40:46;8.10;1.00
7894;DHT22;51343;51.396;6.656;2023-03-14T15:43:13;8.00;1.00
7894;DHT22;51343;51.396;6.656;2023-03-14T15:45:39;8.00;1.00
7894;DHT22;51343;51.396;6.656;2023-03-14T15:48:06;8.00;1.00
7894;DHT22;51343;51.396;6.656;2023-03-14T15:50:39;7.80;1.00
7894;DHT22;51343;51.396;6.656;2023-03-14T15:53:06;7.80;1.00
7894;DHT22;51343;51.396;6.656;2023-03-14T15:55:33;7.70;1.00
7894;DHT22;51343;51.396;6.656;2023-03-14T15:57:59;7.60;1.00
7894;DHT22;51343;51.396;6.656;2023-03-14T16:00:28;7.60;1.00
7894;DHT22;51343;51.396;6.656;2023-03-14T16:02:54;7.50;1.00
7894;DHT22;51343;51.396;6.656;2023-03-14T16:05:21;7.60;1.00
7894;DHT22;51343;51.396;6.656;2023-03-14T16:07:49;7.50;1.00
7894;DHT22;51343;51.396;6.656;2023-03-14T16:10:16;7.50;1.00
7894;DHT22;51343;51.396;6.656;2023-03-14T16:12:43;7.40;1.00
7894;DHT22;51343;51.396;6.656;2023-03-14T16:15:09;7.40;1.00
7894;DHT22;51343;51.396;6.656;2023-03-14T16:17:36;7.40;1.00